createdAt,value
2019-06-01T00:00:58.954Z,84.30
2019-06-01T00:05:52.932Z,84.06
2019-06-01T00:10:47.752Z,85.37
2019-06-01T00:15:41.977Z,85.94
2019-06-01T00:20:36.084Z,86.42
2019-06-01T00:25:30.397Z,86.77
2019-06-01T00:30:27.361Z,87.15
2019-06-01T00:35:20.547Z,86.58
2019-06-01T00:40:14.724Z,85.97
2019-06-01T00:45:09.098Z,85.65
2019-06-01T00:50:06.382Z,86.00
2019-06-01T00:55:00.466Z,86.37
2019-06-01T00:59:55.094Z,86.32
2019-06-01T01:05:09.807Z,86.47
2019-06-01T01:10:04.776Z,87.99
2019-06-01T01:14:58.909Z,88.09
2019-06-01T01:19:53.991Z,88.09
2019-06-01T01:24:48.334Z,87.07
2019-06-01T01:29:42.560Z,87.01
2019-06-01T01:34:36.533Z,86.87
2019-06-01T01:39:30.584Z,87.22
2019-06-01T01:44:24.544Z,87.48
2019-06-01T01:49:18.624Z,87.11
2019-06-01T01:54:12.589Z,87.39
2019-06-01T01:59:06.740Z,87.68
2019-06-01T02:04:00.909Z,87.79
2019-06-01T02:08:55.189Z,87.93
2019-06-01T02:13:49.254Z,87.96
2019-06-01T02:18:43.216Z,87.96
2019-06-01T02:23:37.176Z,88.40
2019-06-01T02:28:31.165Z,89.33
2019-06-01T02:33:25.126Z,89.25
2019-06-01T02:38:19.164Z,89.19
2019-06-01T02:43:13.122Z,89.10
2019-06-01T02:48:07.166Z,89.23
2019-06-01T02:53:01.589Z,88.94
2019-06-01T02:57:56.009Z,89.78
2019-06-01T03:02:50.123Z,90.07
2019-06-01T03:07:45.700Z,89.89
2019-06-01T03:12:43.972Z,89.26
2019-06-01T03:17:40.460Z,88.99
2019-06-01T03:22:38.438Z,88.78
2019-06-01T03:27:34.709Z,88.91
2019-06-01T03:32:36.344Z,88.92
2019-06-01T03:37:24.732Z,88.72
2019-06-01T03:42:19.037Z,88.48
2019-06-01T03:47:12.991Z,88.29
2019-06-01T03:52:07.372Z,88.12
2019-06-01T03:57:01.413Z,87.82
2019-06-01T04:01:55.446Z,88.21
2019-06-01T04:06:49.417Z,87.63
2019-06-01T04:11:43.361Z,86.76
2019-06-01T04:16:39.273Z,86.30
2019-06-01T04:21:33.243Z,85.79
2019-06-01T04:26:27.205Z,85.19
2019-06-01T04:31:21.305Z,84.99
2019-06-01T04:36:15.267Z,84.22
2019-06-01T04:41:09.759Z,83.94
2019-06-01T04:46:04.045Z,84.07
2019-06-01T04:50:58.090Z,83.17
2019-06-01T04:55:52.081Z,82.92
2019-06-01T05:00:46.648Z,82.45
2019-06-01T05:05:40.602Z,82.50
2019-06-01T05:10:37.007Z,82.18
2019-06-01T05:15:31.089Z,81.81
2019-06-01T05:20:25.045Z,81.83
2019-06-01T05:25:19.177Z,81.86
2019-06-01T05:30:13.870Z,81.57
2019-06-01T05:35:08.169Z,81.27
2019-06-01T05:40:04.925Z,81.43
2019-06-01T05:44:58.945Z,80.84
2019-06-01T05:49:52.974Z,80.44
2019-06-01T05:54:46.936Z,80.34
2019-06-01T05:59:41.242Z,79.49
2019-06-01T06:04:35.195Z,78.92
2019-06-01T06:09:29.140Z,78.10
2019-06-01T06:14:23.115Z,77.78
2019-06-01T06:19:20.511Z,77.16
2019-06-01T06:24:12.930Z,77.13
2019-06-01T06:29:06.896Z,77.20
2019-06-01T06:34:00.875Z,76.52
2019-06-01T06:38:57.851Z,75.84
2019-06-01T06:44:01.056Z,74.73
2019-06-01T06:48:55.499Z,74.61
2019-06-01T06:53:49.576Z,73.47
2019-06-01T06:58:43.566Z,73.06
2019-06-01T07:03:37.540Z,72.64
2019-06-01T07:08:31.501Z,71.72
2019-06-01T07:13:25.506Z,72.03
2019-06-01T07:18:19.469Z,70.00
2019-06-01T07:23:13.433Z,70.06
2019-06-01T07:28:07.457Z,69.53
2019-06-01T07:33:01.388Z,67.71
2019-06-01T07:37:55.456Z,66.66
2019-06-01T07:42:49.434Z,66.06
2019-06-01T07:47:43.432Z,64.91
2019-06-01T07:52:37.391Z,64.40
2019-06-01T07:57:31.766Z,63.95
2019-06-01T08:02:27.922Z,63.21
2019-06-01T08:07:23.300Z,63.93
2019-06-01T08:12:17.620Z,61.64
2019-06-01T08:17:11.613Z,61.96
2019-06-01T08:22:05.723Z,59.95
2019-06-01T08:26:59.741Z,58.38
2019-06-01T08:31:55.898Z,57.99
2019-06-01T08:36:49.680Z,56.39
2019-06-01T08:41:43.794Z,56.79
2019-06-01T08:46:37.802Z,57.25
2019-06-01T08:51:32.154Z,57.67
2019-06-01T08:56:26.275Z,56.58
2019-06-01T09:01:20.240Z,56.75
2019-06-01T09:06:14.232Z,55.46
2019-06-01T09:11:08.277Z,55.58
2019-06-01T09:16:02.551Z,54.04
2019-06-01T09:20:56.834Z,52.80
2019-06-01T09:25:50.935Z,52.96
2019-06-01T09:30:44.934Z,51.63
2019-06-01T09:35:52.609Z,51.53
2019-06-01T09:40:35.196Z,49.71
2019-06-01T09:45:29.900Z,48.12
2019-06-01T09:50:24.056Z,49.78
2019-06-01T09:55:19.941Z,47.84
2019-06-01T10:00:14.442Z,48.09
2019-06-01T10:05:10.772Z,47.60
2019-06-01T10:10:05.183Z,46.63
2019-06-01T10:14:59.314Z,45.28
2019-06-01T10:19:53.379Z,46.71
2019-06-01T10:24:47.483Z,44.85
2019-06-01T10:29:42.912Z,43.41
2019-06-01T10:34:37.792Z,41.88
2019-06-01T10:39:33.013Z,40.38
2019-06-01T10:44:27.140Z,39.43
2019-06-01T10:49:21.119Z,37.05
2019-06-01T10:54:15.119Z,37.29
2019-06-01T10:59:09.350Z,34.69
2019-06-01T11:04:03.748Z,35.94
2019-06-01T11:08:57.728Z,34.38
2019-06-01T11:13:51.699Z,35.70
2019-06-01T11:18:45.855Z,34.62
2019-06-01T11:23:43.665Z,34.06
2019-06-01T11:28:36.191Z,32.83
2019-06-01T11:33:30.354Z,35.10
2019-06-01T11:38:24.418Z,37.72
2019-06-01T11:43:18.611Z,37.56
2019-06-01T11:48:12.597Z,37.19
2019-06-01T11:53:06.540Z,36.80
2019-06-01T11:58:00.792Z,37.00
2019-06-01T12:02:54.870Z,37.45
2019-06-01T12:07:48.849Z,37.59
2019-06-01T12:12:44.210Z,37.08
2019-06-01T12:17:38.830Z,35.41
2019-06-01T12:22:32.940Z,35.69
2019-06-01T12:27:26.875Z,37.66
2019-06-01T12:32:20.862Z,38.28
2019-06-01T12:37:14.823Z,49.21
2019-06-01T12:42:08.913Z,38.11
2019-06-01T12:47:03.207Z,36.32
2019-06-01T12:51:57.307Z,34.66
2019-06-01T12:56:51.499Z,33.52
2019-06-01T13:01:45.604Z,33.52
2019-06-01T13:06:40.750Z,33.11
2019-06-01T13:11:35.362Z,32.73
2019-06-01T13:16:29.479Z,32.28
2019-06-01T13:21:23.429Z,32.38
2019-06-01T13:26:17.411Z,32.14
2019-06-01T13:31:11.379Z,32.94
2019-06-01T13:36:05.513Z,32.33
2019-06-01T13:40:59.576Z,31.31
2019-06-01T13:45:53.663Z,31.53
2019-06-01T13:50:47.912Z,31.78
2019-06-01T13:55:41.862Z,31.40
2019-06-01T14:00:35.955Z,30.21
2019-06-01T14:05:30.034Z,30.30
2019-06-01T14:10:24.038Z,30.08
2019-06-01T14:15:18.064Z,30.32
2019-06-01T14:20:12.261Z,29.75
2019-06-01T14:25:13.709Z,29.65
2019-06-01T14:30:06.021Z,29.07
2019-06-01T14:35:00.125Z,30.04
2019-06-01T14:39:54.960Z,29.12
2019-06-01T14:44:49.332Z,28.77
2019-06-01T14:49:43.392Z,27.26
2019-06-01T14:54:37.359Z,25.31
2019-06-01T14:59:31.469Z,24.76
2019-06-01T15:04:25.428Z,22.87
2019-06-01T15:09:20.064Z,20.00
2019-06-01T15:14:14.328Z,17.41
2019-06-01T15:19:08.297Z,15.38
2019-06-01T15:24:02.743Z,14.85
2019-06-01T15:28:57.115Z,12.78
2019-06-01T15:33:51.336Z,12.43
2019-06-01T15:38:45.302Z,12.08
2019-06-01T15:43:39.290Z,11.85
2019-06-01T15:48:33.264Z,11.63
2019-06-01T15:53:27.239Z,10.95
2019-06-01T15:58:21.263Z,10.32
2019-06-01T16:03:15.220Z,10.33
2019-06-01T16:08:09.230Z,10.75
2019-06-01T16:13:04.456Z,12.19
2019-06-01T16:17:59.998Z,14.52
2019-06-01T16:22:54.243Z,16.31
2019-06-01T16:27:48.243Z,18.87
2019-06-01T16:32:42.812Z,20.42
2019-06-01T16:37:36.801Z,22.46
2019-06-01T16:42:30.825Z,23.36
2019-06-01T16:47:24.968Z,24.54
2019-06-01T16:52:18.938Z,25.90
2019-06-01T16:57:12.939Z,26.28
2019-06-01T17:02:07.958Z,27.14
2019-06-01T17:07:05.672Z,28.25
2019-06-01T17:11:58.750Z,28.71
2019-06-01T17:16:52.791Z,28.54
2019-06-01T17:21:47.195Z,29.58
2019-06-01T17:26:41.200Z,30.15
2019-06-01T17:31:35.182Z,30.46
2019-06-01T17:36:29.287Z,31.51
2019-06-01T17:41:23.375Z,31.35
2019-06-01T17:46:17.461Z,32.14
2019-06-01T17:51:12.553Z,32.45
2019-06-01T17:56:08.076Z,33.26
2019-06-01T18:01:04.100Z,33.26
2019-06-01T18:05:58.582Z,34.76
2019-06-01T18:10:54.921Z,34.75
2019-06-01T18:15:50.155Z,35.36
2019-06-01T18:20:44.450Z,35.61
2019-06-01T18:25:38.503Z,35.54
2019-06-01T18:30:32.811Z,37.06
2019-06-01T18:35:26.775Z,38.64
2019-06-01T18:40:22.761Z,42.25
2019-06-01T18:45:17.541Z,47.98
2019-06-01T18:50:14.724Z,51.90
2019-06-01T18:55:08.532Z,54.92
2019-06-01T19:00:09.227Z,55.98
2019-06-01T19:05:02.961Z,56.63
2019-06-01T19:09:57.179Z,58.01
2019-06-01T19:14:51.262Z,58.87
2019-06-01T19:19:45.236Z,59.75
2019-06-01T19:24:39.663Z,60.04
2019-06-01T19:29:33.669Z,61.30
2019-06-01T19:34:27.670Z,61.98
2019-06-01T19:39:21.763Z,61.72
2019-06-01T19:44:15.926Z,62.16
2019-06-01T19:49:10.837Z,62.75
2019-06-01T19:54:05.210Z,63.60
2019-06-01T19:58:59.607Z,64.14
2019-06-01T20:03:53.583Z,64.92
2019-06-01T20:08:47.567Z,65.36
2019-06-01T20:13:41.780Z,65.93
2019-06-01T20:18:35.842Z,66.23
2019-06-01T20:23:29.802Z,66.24
2019-06-01T20:28:23.786Z,66.42
2019-06-01T20:33:18.288Z,66.56
2019-06-01T20:38:12.671Z,66.65
2019-06-01T20:43:07.312Z,66.40
2019-06-01T20:48:01.604Z,67.29
2019-06-01T20:52:55.619Z,67.61
2019-06-01T20:57:49.857Z,67.77
2019-06-01T21:02:43.848Z,67.30
2019-06-01T21:07:38.110Z,67.46
2019-06-01T21:12:44.795Z,66.58
2019-06-01T21:17:28.326Z,67.38
2019-06-01T21:22:22.755Z,67.87
2019-06-01T21:27:16.744Z,67.35
2019-06-01T21:32:10.875Z,67.32
2019-06-01T21:37:04.837Z,67.20
2019-06-01T21:41:58.799Z,66.92
2019-06-01T21:46:52.769Z,67.31
2019-06-01T21:51:47.273Z,67.46
2019-06-01T21:56:41.319Z,67.51
2019-06-01T22:01:35.413Z,67.82
2019-06-01T22:06:29.888Z,68.17
2019-06-01T22:11:25.433Z,67.95
2019-06-01T22:16:19.548Z,68.49
2019-06-01T22:21:13.598Z,68.68
2019-06-01T22:26:07.559Z,68.62
2019-06-01T22:31:01.643Z,68.51
2019-06-01T22:35:55.631Z,68.23
2019-06-01T22:40:49.613Z,69.21
2019-06-01T22:45:43.789Z,69.30
2019-06-01T22:50:37.750Z,69.30
2019-06-01T22:55:32.565Z,69.33
2019-06-01T23:00:27.856Z,69.38
2019-06-01T23:05:23.021Z,69.54
2019-06-01T23:10:17.301Z,69.97
2019-06-01T23:15:11.894Z,69.77
2019-06-01T23:20:06.387Z,68.97
2019-06-01T23:25:00.463Z,68.85
2019-06-01T23:29:54.426Z,68.96
2019-06-01T23:34:48.399Z,69.07
2019-06-01T23:39:42.427Z,69.30
2019-06-01T23:44:36.507Z,69.12
2019-06-01T23:49:31.347Z,69.10
2019-06-01T23:54:25.592Z,68.99
2019-06-01T23:59:19.719Z,69.00
